Time;durP1;ratioP1;P1;durP2;ratioP2;P2;SDS_P1;SDS_P2;PMS_P1;PMS_P2;Temp;Humidity;BMP_temperature;BMP_pressure;BME280_temperature;BME280_humidity;BME280_pressure;Samples;Min_cycle;Max_cycle;Signal;HPM_P1;HPM_P2
2022/12/07 00:01:21;;;;;;;4.78;1.30;;;4.80;99.90;;;;;;5108769;28;20673;-87
2022/12/07 00:03:48;;;;;;;5.95;1.60;;;4.70;99.90;;;;;;5092309;28;20043;-88
2022/12/07 00:06:15;;;;;;;5.28;1.50;;;4.70;99.90;;;;;;5109113;28;20027;-87
2022/12/07 00:08:41;;;;;;;3.65;1.13;;;4.70;99.90;;;;;;5101692;28;20043;-88
2022/12/07 00:11:13;;;;;;;8.05;1.58;;;4.60;99.90;;;;;;5109352;28;20412;-88
2022/12/07 00:13:39;;;;;;;6.47;1.70;;;4.60;99.90;;;;;;5091254;28;20047;-88
2022/12/07 00:16:17;;;;;;;8.00;2.30;;;4.60;99.90;;;;;;5092137;28;20035;-89
2022/12/07 00:18:43;;;;;;;10.05;3.05;;;4.50;99.90;;;;;;5108772;28;20111;-88
2022/12/07 00:21:14;;;;;;;10.38;4.00;;;4.50;99.90;;;;;;5108605;28;20043;-87
2022/12/07 00:23:42;;;;;;;12.95;4.88;;;4.50;99.90;;;;;;5108197;28;20039;-88
2022/12/07 00:26:11;;;;;;;11.02;5.85;;;4.40;99.90;;;;;;5090709;28;20126;-88
2022/12/07 00:28:37;;;;;;;10.50;5.20;;;4.40;99.90;;;;;;5108772;28;20084;-88
2022/12/07 00:31:06;;;;;;;10.23;4.20;;;4.30;99.90;;;;;;5108152;28;20487;-87
2022/12/07 00:33:34;;;;;;;10.45;3.92;;;4.30;99.90;;;;;;5091321;28;20040;-88
2022/12/07 00:36:00;;;;;;;10.68;2.97;;;4.30;99.90;;;;;;5107949;28;20040;-87
2022/12/07 00:38:30;;;;;;;6.53;2.50;;;4.20;99.90;;;;;;5071629;28;20032;-88
2022/12/07 00:41:01;;;;;;;8.43;2.05;;;4.20;99.90;;;;;;5092084;28;20169;-87
2022/12/07 00:43:27;;;;;;;7.40;1.95;;;4.20;99.90;;;;;;5108380;28;20036;-87
2022/12/07 00:45:53;;;;;;;6.45;1.42;;;4.10;99.90;;;;;;5108559;28;20518;-87
2022/12/07 00:48:19;;;;;;;5.47;1.33;;;4.10;99.90;;;;;;5093956;28;20036;-87
2022/12/07 00:50:44;;;;;;;6.85;1.50;;;4.10;99.90;;;;;;5088433;28;20189;-87
2022/12/07 00:53:10;;;;;;;6.53;1.40;;;4.10;99.90;;;;;;5106027;28;20036;-88
2022/12/07 00:55:36;;;;;;;7.00;1.73;;;4.10;99.90;;;;;;5108978;28;20038;-87
2022/12/07 00:58:02;;;;;;;6.70;1.30;;;4.10;99.90;;;;;;5108280;28;20039;-87
2022/12/07 01:00:28;;;;;;;6.50;1.50;;;4.10;99.90;;;;;;5092867;28;20044;-87
2022/12/07 01:02:54;;;;;;;7.80;1.67;;;4.10;99.90;;;;;;5087944;28;20423;-87
2022/12/07 01:05:19;;;;;;;8.15;1.40;;;4.10;99.90;;;;;;5096713;28;20038;-87
2022/12/07 01:07:46;;;;;;;8.98;1.98;;;4.10;99.90;;;;;;5091448;28;20470;-87
2022/12/07 01:10:13;;;;;;;6.00;1.55;;;4.10;99.90;;;;;;5108580;28;20050;-87
2022/12/07 01:12:38;;;;;;;9.90;2.25;;;4.10;99.90;;;;;;5107030;28;20079;-87
2022/12/07 01:15:05;;;;;;;15.70;2.65;;;4.10;99.90;;;;;;5108818;28;20084;-87
2022/12/07 01:17:31;;;;;;;8.68;1.75;;;4.00;99.90;;;;;;5108501;28;20518;-87
2022/12/07 01:19:56;;;;;;;9.07;2.03;;;4.00;99.90;;;;;;5091078;28;20118;-87
2022/12/07 01:22:22;;;;;;;8.48;2.55;;;4.00;99.90;;;;;;5107988;28;20058;-87
2022/12/07 01:24:48;;;;;;;10.15;2.65;;;4.00;99.90;;;;;;5089681;28;20853;-86
2022/12/07 01:27:14;;;;;;;9.90;2.15;;;3.90;99.90;;;;;;5104305;28;20039;-87
2022/12/07 01:29:40;;;;;;;9.15;2.10;;;4.00;99.90;;;;;;5093137;28;20085;-87
2022/12/07 01:32:05;;;;;;;7.03;1.63;;;3.90;99.90;;;;;;5107523;28;20508;-87
2022/12/07 01:34:31;;;;;;;9.13;1.63;;;4.00;99.90;;;;;;5090808;28;20039;-87
2022/12/07 01:36:57;;;;;;;9.48;1.52;;;4.00;99.90;;;;;;5110893;28;20067;-86
2022/12/07 01:39:23;;;;;;;8.57;1.65;;;4.00;99.90;;;;;;5112045;28;20036;-87
2022/12/07 01:41:49;;;;;;;7.35;2.10;;;4.00;99.90;;;;;;5094540;28;20400;-87
2022/12/07 01:44:23;;;;;;;5.70;1.25;;;4.00;99.90;;;;;;5094751;28;20038;-87
2022/12/07 01:46:53;;;;;;;5.32;1.40;;;4.00;99.90;;;;;;5094117;28;20527;-87
2022/12/07 01:49:28;;;;;;;9.55;1.70;;;4.00;99.90;;;;;;5110907;28;20093;-87
2022/12/07 01:52:01;;;;;;;10.38;1.55;;;4.00;99.90;;;;;;5094796;28;20044;-86
2022/12/07 01:54:27;;;;;;;10.18;1.83;;;4.00;99.90;;;;;;5111022;28;20032;-87
2022/12/07 01:56:56;;;;;;;11.18;2.38;;;4.10;99.90;;;;;;5111425;28;20043;-87
2022/12/07 01:59:25;;;;;;;7.55;1.10;;;4.10;99.90;;;;;;5094698;28;20050;-86
2022/12/07 02:01:53;;;;;;;6.22;1.60;;;4.10;99.90;;;;;;5110622;28;20110;-87
2022/12/07 02:04:19;;;;;;;9.60;1.90;;;4.10;99.90;;;;;;5094003;28;20821;-87
2022/12/07 02:06:45;;;;;;;7.90;1.52;;;4.10;99.90;;;;;;5085025;28;20149;-86
2022/12/07 02:09:12;;;;;;;8.05;1.70;;;4.20;99.90;;;;;;5073970;28;20489;-87
2022/12/07 02:11:37;;;;;;;8.15;1.67;;;4.20;99.90;;;;;;5078689;28;20027;-87
2022/12/07 02:14:03;;;;;;;9.35;1.88;;;4.30;99.90;;;;;;5093781;28;20035;-87
2022/12/07 02:16:46;;;;;;;11.05;1.67;;;4.30;99.90;;;;;;5094313;28;20064;-86
2022/12/07 02:19:27;;;;;;;;;;;4.30;99.90;;;;;;5094339;28;20046;-87
2022/12/07 02:22:16;;;;;;;3.65;0.98;;;4.40;99.90;;;;;;5111225;28;19934;-87
2022/12/07 02:25:00;;;;;;;6.22;1.40;;;4.40;99.90;;;;;;5110525;28;20035;-87
2022/12/07 02:27:44;;;;;;;3.90;0.90;;;4.40;99.90;;;;;;5110485;28;20051;-87
2022/12/07 02:30:16;;;;;;;7.97;1.27;;;4.50;99.90;;;;;;5093444;28;20035;-87
2022/12/07 02:33:00;;;;;;;3.25;0.82;;;4.50;99.90;;;;;;5110345;28;20118;-86
2022/12/07 02:35:34;;;;;;;8.18;1.52;;;4.50;99.90;;;;;;5110560;28;20114;-87
2022/12/07 02:38:18;;;;;;;7.43;1.02;;;4.50;99.90;;;;;;5073242;28;20489;-87
2022/12/07 02:40:52;;;;;;;7.93;1.20;;;4.50;99.90;;;;;;5094841;28;20043;-87
2022/12/07 02:43:24;;;;;;;6.85;1.58;;;4.50;99.90;;;;;;5111036;28;20088;-88
2022/12/07 02:45:53;;;;;;;6.35;1.20;;;4.50;99.90;;;;;;5093717;28;20063;-87
2022/12/07 02:48:19;;;;;;;7.07;1.15;;;4.50;99.90;;;;;;5091703;28;20052;-87
2022/12/07 02:50:53;;;;;;;7.13;2.30;;;4.40;99.90;;;;;;5093582;28;20035;-87
2022/12/07 02:53:51;;;;;;;9.15;1.58;;;4.40;99.90;;;;;;5109851;28;20043;-87
2022/12/07 02:56:44;;;;;;;7.95;1.80;;;4.40;99.90;;;;;;5012704;28;20462;-87
2022/12/07 02:59:47;;;;;;;6.78;2.00;;;4.30;99.90;;;;;;5012993;28;20514;-87
2022/12/07 03:02:26;;;;;;;7.50;1.90;;;4.20;99.90;;;;;;5028335;28;20045;-87
2022/12/07 03:04:58;;;;;;;6.97;1.65;;;4.20;99.90;;;;;;5011777;28;20037;-87
2022/12/07 03:07:48;;;;;;;5.55;1.58;;;4.10;99.90;;;;;;5010745;28;20053;-87
2022/12/07 03:10:40;;;;;;;9.43;1.63;;;4.10;99.90;;;;;;5011972;28;20045;-87
2022/12/07 03:13:36;;;;;;;7.72;1.45;;;4.00;99.90;;;;;;5010522;28;20056;-87
2022/12/07 03:16:05;;;;;;;8.75;2.22;;;4.00;99.90;;;;;;5011837;28;20049;-86
2022/12/07 03:18:36;;;;;;;4.80;1.23;;;4.00;99.90;;;;;;5011429;28;20132;-87
2022/12/07 03:21:08;;;;;;;8.45;1.63;;;4.00;99.90;;;;;;5012053;28;20045;-87
2022/12/07 03:23:37;;;;;;;5.43;1.35;;;4.00;99.90;;;;;;5028150;28;20049;-87
2022/12/07 03:26:04;;;;;;;4.20;1.02;;;4.00;99.90;;;;;;4994721;28;20503;-87
2022/12/07 03:28:37;;;;;;;7.00;1.55;;;4.00;99.90;;;;;;4994377;28;20041;-87
2022/12/07 03:31:15;;;;;;;6.25;1.23;;;4.00;99.90;;;;;;5023393;28;20058;-87
2022/12/07 03:33:54;;;;;;;5.78;1.27;;;4.00;99.90;;;;;;5109559;28;20400;-87
2022/12/07 03:36:44;;;;;;;7.88;1.75;;;4.00;99.90;;;;;;5109022;28;20521;-87
2022/12/07 03:39:33;;;;;;;8.15;1.30;;;4.00;99.90;;;;;;5093479;28;20058;-87
2022/12/07 03:42:03;;;;;;;5.68;1.10;;;4.00;99.90;;;;;;5109685;28;20060;-87
2022/12/07 03:44:29;;;;;;;5.93;1.33;;;4.00;99.90;;;;;;5109762;28;20054;-87
2022/12/07 03:47:16;;;;;;;9.60;1.20;;;4.00;99.90;;;;;;5091979;28;20036;-87
2022/12/07 03:49:49;;;;;;;5.45;1.17;;;4.00;99.90;;;;;;5096987;28;20193;-87
2022/12/07 03:52:21;;;;;;;;;;;4.10;99.90;;;;;;5092959;28;20054;-87
2022/12/07 03:55:16;;;;;;;5.45;1.33;;;4.00;99.90;;;;;;5108731;28;19958;-87
2022/12/07 03:57:44;;;;;;;2.63;0.82;;;4.00;99.90;;;;;;5092334;28;20039;-86
2022/12/07 04:00:11;;;;;;;5.70;1.00;;;4.00;99.90;;;;;;5109509;28;20046;-87
2022/12/07 04:02:37;;;;;;;8.00;1.23;;;4.00;99.90;;;;;;5091437;28;20458;-87
2022/12/07 04:05:04;;;;;;;4.97;1.17;;;4.00;99.90;;;;;;5109486;28;20456;-87
2022/12/07 04:07:29;;;;;;;6.03;1.10;;;4.00;99.90;;;;;;5107508;28;20040;-87
2022/12/07 04:09:55;;;;;;;7.32;0.98;;;3.90;99.90;;;;;;5092067;28;20164;-87
2022/12/07 04:12:21;;;;;;;5.47;1.13;;;3.90;99.90;;;;;;5107575;28;20050;-87
2022/12/07 04:14:47;;;;;;;6.32;1.20;;;3.80;99.90;;;;;;5109044;28;20054;-87
2022/12/07 04:17:13;;;;;;;8.20;1.55;;;3.80;99.90;;;;;;5109294;28;20031;-87
2022/12/07 04:19:38;;;;;;;4.72;1.10;;;3.80;99.90;;;;;;5108699;28;20048;-87
2022/12/07 04:22:05;;;;;;;5.75;0.98;;;3.80;99.90;;;;;;5109239;28;20039;-88
2022/12/07 04:24:30;;;;;;;6.15;1.42;;;3.70;99.90;;;;;;5090988;28;20028;-87
2022/12/07 04:26:56;;;;;;;8.88;1.40;;;3.70;99.90;;;;;;5091433;28;20031;-87
2022/12/07 04:29:22;;;;;;;7.20;1.25;;;3.70;99.90;;;;;;5106317;28;20052;-84
2022/12/07 04:31:48;;;;;;;6.55;1.10;;;3.70;99.90;;;;;;5113714;28;20443;-87
2022/12/07 04:34:15;;;;;;;6.47;0.98;;;3.70;99.90;;;;;;5113742;28;20092;-85
2022/12/07 04:36:42;;;;;;;4.45;0.90;;;3.70;99.90;;;;;;5080641;28;20035;-87
2022/12/07 04:39:11;;;;;;;6.35;0.98;;;3.70;99.90;;;;;;5110593;28;20081;-87
2022/12/07 04:41:36;;;;;;;7.10;0.98;;;3.70;99.90;;;;;;5110061;28;20039;-87
2022/12/07 04:44:04;;;;;;;5.65;1.17;;;3.60;99.90;;;;;;5092092;28;20040;-87
2022/12/07 04:46:31;;;;;;;6.50;1.17;;;3.60;99.90;;;;;;5091962;28;20092;-87
2022/12/07 04:48:57;;;;;;;6.53;1.55;;;3.60;99.90;;;;;;5105831;28;20493;-87
2022/12/07 04:51:26;;;;;;;8.43;1.25;;;3.60;99.90;;;;;;5108498;28;20081;-87
2022/12/07 04:53:52;;;;;;;6.55;1.23;;;3.60;99.90;;;;;;5098424;28;20039;-87
2022/12/07 04:56:18;;;;;;;6.10;1.10;;;3.60;99.90;;;;;;5108871;28;20043;-87
2022/12/07 04:58:46;;;;;;;7.10;1.20;;;3.50;99.90;;;;;;5107637;28;20408;-87
2022/12/07 05:01:12;;;;;;;3.33;0.80;;;3.50;99.90;;;;;;5098450;28;20051;-87
2022/12/07 05:03:38;;;;;;;6.55;1.08;;;3.50;99.90;;;;;;5087582;28;20048;-87
2022/12/07 05:06:06;;;;;;;8.93;1.60;;;3.40;99.90;;;;;;5070761;28;20046;-87
2022/12/07 05:08:33;;;;;;;11.52;1.42;;;3.50;99.90;;;;;;5088196;28;20044;-87
2022/12/07 05:11:00;;;;;;;5.85;2.55;;;3.40;99.90;;;;;;5092904;28;20158;-87
2022/12/07 05:13:26;;;;;;;5.53;0.88;;;3.40;99.90;;;;;;5112207;28;20035;-87
2022/12/07 05:15:51;;;;;;;5.65;1.10;;;3.40;99.90;;;;;;5112266;28;20043;-87
2022/12/07 05:18:17;;;;;;;10.60;1.55;;;3.40;99.90;;;;;;5112144;28;20044;-87
2022/12/07 05:20:43;;;;;;;11.68;1.20;;;3.40;99.90;;;;;;5096270;28;20046;-86
2022/12/07 05:23:09;;;;;;;5.05;0.80;;;3.40;99.90;;;;;;5111410;28;20489;-87
2022/12/07 05:25:35;;;;;;;8.75;0.88;;;3.40;99.90;;;;;;5095564;28;20081;-87
2022/12/07 05:28:01;;;;;;;3.22;0.75;;;3.40;99.90;;;;;;5094353;28;20038;-87
2022/12/07 05:30:27;;;;;;;4.47;0.70;;;3.40;99.90;;;;;;5111738;28;20035;-87
2022/12/07 05:32:53;;;;;;;5.93;1.02;;;3.40;99.90;;;;;;5094751;28;20075;-87
2022/12/07 05:35:19;;;;;;;3.63;1.02;;;3.40;99.90;;;;;;5102735;28;20078;-87
2022/12/07 05:37:45;;;;;;;7.97;1.52;;;3.40;99.90;;;;;;5095138;28;20036;-87
2022/12/07 05:40:12;;;;;;;7.93;2.35;;;3.40;99.90;;;;;;5111678;28;20046;-87
2022/12/07 05:42:38;;;;;;;9.45;1.38;;;3.40;99.90;;;;;;5111191;28;20048;-88
2022/12/07 05:45:04;;;;;;;7.32;1.00;;;3.50;99.90;;;;;;5094904;28;20042;-88
2022/12/07 05:47:30;;;;;;;7.47;1.17;;;3.50;99.90;;;;;;5110165;28;20057;-88
2022/12/07 05:49:55;;;;;;;6.07;0.90;;;3.50;99.90;;;;;;5111314;28;20036;-88
2022/12/07 05:52:21;;;;;;;11.13;1.83;;;3.50;99.90;;;;;;5110626;28;20408;-87
2022/12/07 05:54:47;;;;;;;6.47;1.38;;;3.50;99.90;;;;;;5111048;28;20036;-87
2022/12/07 05:57:13;;;;;;;7.70;1.75;;;3.60;99.90;;;;;;5094192;28;20039;-87
2022/12/07 05:59:38;;;;;;;3.13;0.88;;;3.60;99.90;;;;;;5093113;28;20466;-87
2022/12/07 06:02:07;;;;;;;2.78;0.73;;;3.60;99.90;;;;;;5108931;28;20085;-87
2022/12/07 06:04:36;;;;;;;9.45;1.30;;;3.60;99.90;;;;;;5092100;28;20110;-87
2022/12/07 06:07:02;;;;;;;4.13;1.75;;;3.60;99.90;;;;;;5093117;28;20035;-88
2022/12/07 06:09:28;;;;;;;6.07;0.90;;;3.60;99.90;;;;;;5111080;28;20436;-87
2022/12/07 06:14:39;;;;;;;8.95;2.17;;;3.50;99.90;;;;;;5110996;28;20047;-87
2022/12/07 06:17:05;;;;;;;8.73;1.63;;;3.40;99.90;;;;;;5110783;28;20036;-87
2022/12/07 06:19:31;;;;;;;4.00;0.88;;;3.40;99.90;;;;;;5094520;28;20032;-87
2022/12/07 06:21:56;;;;;;;6.13;0.80;;;3.30;99.90;;;;;;5085912;28;20078;-86
2022/12/07 06:24:22;;;;;;;5.18;1.13;;;3.30;99.90;;;;;;5073558;28;20047;-86
2022/12/07 06:26:48;;;;;;;5.05;1.00;;;3.30;99.90;;;;;;5086301;28;20032;-86
2022/12/07 06:29:14;;;;;;;4.47;0.95;;;3.30;99.90;;;;;;5104105;28;20127;-87
2022/12/07 06:31:40;;;;;;;3.95;0.75;;;3.20;99.90;;;;;;5110790;28;20039;-87
2022/12/07 06:34:12;;;;;;;7.40;1.15;;;3.20;99.90;;;;;;5110517;28;20095;-87
2022/12/07 06:36:38;;;;;;;4.80;0.98;;;3.20;99.90;;;;;;5092741;28;20165;-86
2022/12/07 06:39:05;;;;;;;4.45;0.80;;;3.20;99.90;;;;;;5094411;28;20498;-88
2022/12/07 06:41:31;;;;;;;9.75;1.60;;;3.10;99.90;;;;;;5110220;28;20427;-88
2022/12/07 06:43:56;;;;;;;3.83;0.88;;;3.10;99.90;;;;;;5110097;28;20057;-87
2022/12/07 06:46:23;;;;;;;5.20;1.30;;;3.10;99.90;;;;;;5093552;28;20131;-88
2022/12/07 06:48:48;;;;;;;4.75;0.85;;;3.10;99.90;;;;;;5108895;28;20043;-87
2022/12/07 06:51:14;;;;;;;6.95;1.25;;;3.20;99.90;;;;;;5110388;28;20036;-88
2022/12/07 06:53:39;;;;;;;9.05;1.73;;;3.20;99.90;;;;;;5108544;28;20074;-87
2022/12/07 06:56:05;;;;;;;7.80;1.38;;;3.20;99.90;;;;;;5090376;28;20044;-88
2022/12/07 06:58:31;;;;;;;6.05;1.10;;;3.20;99.90;;;;;;5073345;28;20036;-88
2022/12/07 07:00:56;;;;;;;9.10;1.00;;;3.20;99.90;;;;;;5088911;28;20092;-87
2022/12/07 07:03:22;;;;;;;6.80;0.88;;;3.20;99.90;;;;;;5110403;28;20042;-87
2022/12/07 07:05:48;;;;;;;8.32;1.35;;;3.20;99.90;;;;;;5110296;28;20113;-87
2022/12/07 07:08:14;;;;;;;5.03;1.15;;;3.20;99.90;;;;;;5092194;28;20036;-87
2022/12/07 07:10:40;;;;;;;4.82;1.00;;;3.20;99.90;;;;;;5109852;28;20683;-87
2022/12/07 07:13:07;;;;;;;6.07;1.23;;;3.20;99.90;;;;;;5109889;28;20027;-87
2022/12/07 07:15:33;;;;;;;5.68;0.90;;;3.20;99.90;;;;;;5074683;28;20085;-87
2022/12/07 07:17:59;;;;;;;5.90;0.80;;;3.20;99.90;;;;;;5089814;28;20036;-87
2022/12/07 07:20:24;;;;;;;6.10;1.27;;;3.20;99.90;;;;;;5100016;28;20036;-87
2022/12/07 07:22:50;;;;;;;5.88;1.35;;;3.20;99.90;;;;;;5092485;28;20069;-88
2022/12/07 07:25:16;;;;;;;5.13;0.90;;;3.20;99.90;;;;;;5109395;28;20032;-87
2022/12/07 07:27:42;;;;;;;4.85;1.20;;;3.20;99.90;;;;;;5090059;28;20039;-87
2022/12/07 07:30:08;;;;;;;8.57;1.42;;;3.20;99.90;;;;;;5093002;28;20077;-88
2022/12/07 07:32:34;;;;;;;4.13;1.10;;;3.20;99.90;;;;;;5109231;28;20504;-87
2022/12/07 07:34:59;;;;;;;5.47;0.90;;;3.20;99.90;;;;;;5075199;28;20039;-88
2022/12/07 07:37:26;;;;;;;3.60;0.85;;;3.30;99.90;;;;;;5109289;28;20039;-87
2022/12/07 07:39:51;;;;;;;7.03;0.82;;;3.30;99.90;;;;;;5092972;28;20044;-87
2022/12/07 07:42:17;;;;;;;4.75;0.85;;;3.30;99.90;;;;;;5108657;28;20109;-88
2022/12/07 07:44:43;;;;;;;5.22;1.27;;;3.30;99.90;;;;;;5109398;28;20113;-87
2022/12/07 07:47:08;;;;;;;6.90;1.23;;;3.40;99.90;;;;;;5092267;28;20043;-87
2022/12/07 07:49:34;;;;;;;4.68;1.10;;;3.50;99.90;;;;;;5108719;28;20049;-87
2022/12/07 07:51:59;;;;;;;11.07;1.50;;;3.50;99.90;;;;;;5109210;28;20050;-86
2022/12/07 07:54:25;;;;;;;5.47;0.93;;;3.60;99.90;;;;;;5082546;28;20091;-87
2022/12/07 07:56:52;;;;;;;5.53;1.20;;;3.60;99.90;;;;;;5109244;28;20039;-87
2022/12/07 07:59:18;;;;;;;7.57;1.42;;;3.60;99.90;;;;;;5092863;28;20049;-87
2022/12/07 08:01:43;;;;;;;5.15;1.20;;;3.70;99.90;;;;;;5091718;28;20122;-87
2022/12/07 08:04:09;;;;;;;9.43;0.90;;;3.70;99.90;;;;;;5108950;28;20569;-88
2022/12/07 08:06:34;;;;;;;7.30;1.17;;;3.70;99.90;;;;;;5092125;28;20401;-88
2022/12/07 08:09:00;;;;;;;5.32;1.02;;;3.60;99.90;;;;;;5091354;28;20036;-87
2022/12/07 08:11:26;;;;;;;3.85;0.82;;;3.60;99.90;;;;;;5091828;28;20044;-88
2022/12/07 08:13:51;;;;;;;5.05;1.05;;;3.60;99.90;;;;;;5091586;28;20408;-87
2022/12/07 08:16:17;;;;;;;3.25;0.75;;;3.60;99.90;;;;;;5108475;28;20039;-87
2022/12/07 08:18:43;;;;;;;4.72;0.73;;;3.60;99.90;;;;;;5109308;28;20082;-87
2022/12/07 08:21:11;;;;;;;2.50;0.68;;;3.60;99.90;;;;;;5108743;28;20127;-87
2022/12/07 08:23:37;;;;;;;11.38;2.05;;;3.60;99.90;;;;;;5091878;28;20039;-87
2022/12/07 08:26:05;;;;;;;8.30;0.93;;;3.60;99.90;;;;;;5108742;28;20454;-87
2022/12/07 08:28:31;;;;;;;8.93;1.23;;;3.60;99.90;;;;;;5107626;28;20512;-87
2022/12/07 08:31:04;;;;;;;5.10;1.05;;;3.70;99.90;;;;;;5108344;28;20027;-87
2022/12/07 08:33:29;;;;;;;;;;;3.70;99.90;;;;;;5108048;28;20114;-87
2022/12/07 08:36:04;;;;;;;6.78;0.88;;;3.70;99.90;;;;;;5108859;28;20033;-87
2022/12/07 08:38:29;;;;;;;9.38;1.02;;;3.70;99.90;;;;;;5091414;28;20027;-87
2022/12/07 08:40:59;;;;;;;5.05;1.20;;;3.80;99.90;;;;;;5092295;28;20417;-86
2022/12/07 08:43:25;;;;;;;6.00;0.95;;;3.80;99.90;;;;;;5108833;28;20048;-86
2022/12/07 08:46:03;;;;;;;6.13;1.00;;;3.80;99.90;;;;;;5092904;28;20118;-87
2022/12/07 08:48:30;;;;;;;3.38;0.70;;;3.90;99.90;;;;;;5112762;28;20052;-87
2022/12/07 08:50:56;;;;;;;6.20;1.35;;;3.90;99.90;;;;;;5112188;28;20168;-87
2022/12/07 08:53:22;;;;;;;5.07;1.77;;;3.90;99.90;;;;;;5112501;28;20126;-87
2022/12/07 08:55:48;;;;;;;5.57;1.55;;;3.80;99.90;;;;;;5112440;28;20039;-87
2022/12/07 08:58:14;;;;;;;6.65;1.67;;;3.80;99.90;;;;;;5112403;28;20032;-87
2022/12/07 09:00:39;;;;;;;5.00;0.88;;;3.80;99.90;;;;;;5113758;28;20416;-87
2022/12/07 09:03:05;;;;;;;5.50;1.15;;;3.80;99.90;;;;;;5095271;28;20031;-87
2022/12/07 09:05:33;;;;;;;8.85;1.55;;;3.80;99.90;;;;;;5112897;28;20123;-87
2022/12/07 09:08:01;;;;;;;4.90;0.88;;;3.80;99.90;;;;;;5112125;28;20044;-87
2022/12/07 09:10:27;;;;;;;18.05;1.38;;;3.80;99.90;;;;;;5094030;28;20071;-87
2022/12/07 09:12:53;;;;;;;6.25;0.98;;;3.90;99.90;;;;;;5095320;28;20050;-86
2022/12/07 09:15:19;;;;;;;7.63;1.20;;;4.00;99.90;;;;;;5095559;28;20043;-86
2022/12/07 09:17:44;;;;;;;8.02;1.00;;;4.10;99.90;;;;;;5111409;28;20032;-86
2022/12/07 09:20:11;;;;;;;9.30;1.65;;;4.20;99.90;;;;;;5112956;28;20046;-86
2022/12/07 09:22:37;;;;;;;3.25;1.08;;;4.40;99.90;;;;;;5095245;28;20032;-87
2022/12/07 09:25:03;;;;;;;7.18;1.48;;;4.40;99.90;;;;;;5094869;28;20049;-87
2022/12/07 09:27:30;;;;;;;3.78;1.02;;;4.50;99.90;;;;;;5112138;28;20500;-87
2022/12/07 09:29:55;;;;;;;3.03;0.82;;;4.50;99.90;;;;;;5093750;28;20023;-86
2022/12/07 09:32:21;;;;;;;5.55;0.93;;;4.60;99.90;;;;;;5095291;28;20100;-87
2022/12/07 09:34:47;;;;;;;11.35;1.65;;;4.50;99.90;;;;;;5094919;28;20123;-88
2022/12/07 09:37:12;;;;;;;5.53;1.23;;;4.60;99.90;;;;;;5077507;28;20040;-87
2022/12/07 09:39:39;;;;;;;5.63;0.98;;;4.60;99.90;;;;;;5093693;28;20051;-88
2022/12/07 09:42:07;;;;;;;9.05;1.20;;;4.60;99.90;;;;;;5094764;28;20040;-88
2022/12/07 09:44:34;;;;;;;12.30;2.13;;;4.70;99.90;;;;;;5112594;28;20435;-88
2022/12/07 09:47:01;;;;;;;7.45;1.70;;;4.70;99.90;;;;;;5102163;28;20043;-87
2022/12/07 09:49:30;;;;;;;7.63;1.48;;;4.70;99.90;;;;;;5074006;28;20038;-87
2022/12/07 09:52:08;;;;;;;5.95;1.48;;;4.60;99.90;;;;;;5104164;28;20031;-87
2022/12/07 09:54:45;;;;;;;6.65;1.20;;;4.70;99.90;;;;;;5094873;28;20047;-87
2022/12/07 09:57:12;;;;;;;5.18;1.08;;;4.80;99.90;;;;;;5094188;28;20036;-87
2022/12/07 09:59:40;;;;;;;3.38;1.02;;;4.80;99.90;;;;;;5094886;28;20457;-87
2022/12/07 10:02:35;;;;;;;3.03;0.60;;;5.00;99.90;;;;;;5093618;28;20078;-87
2022/12/07 10:05:04;;;;;;;5.72;1.33;;;5.10;99.90;;;;;;5094334;28;20040;-87
2022/12/07 10:07:30;;;;;;;5.22;1.20;;;5.30;99.90;;;;;;5111436;28;20058;-87
2022/12/07 10:09:55;;;;;;;9.18;1.10;;;5.40;99.90;;;;;;5110071;28;20031;-88
2022/12/07 10:12:21;;;;;;;4.38;1.13;;;5.50;99.90;;;;;;5094013;28;20636;-87
2022/12/07 10:15:02;;;;;;;3.53;0.85;;;5.50;99.90;;;;;;5110368;28;20035;-87
2022/12/07 10:17:51;;;;;;;8.57;1.38;;;5.60;99.90;;;;;;5094570;28;20039;-88
2022/12/07 10:20:22;;;;;;;7.32;1.30;;;5.60;99.90;;;;;;5098780;28;20174;-88
2022/12/07 10:23:08;;;;;;;8.07;1.10;;;5.60;99.90;;;;;;5094103;28;20400;-88
2022/12/07 10:25:36;;;;;;;9.45;1.40;;;5.60;99.90;;;;;;5093710;28;20067;-88
2022/12/07 10:28:12;;;;;;;6.13;1.20;;;5.60;99.90;;;;;;5110486;28;20046;-88
2022/12/07 10:30:48;;;;;;;6.93;1.13;;;5.60;99.90;;;;;;5093395;28;20043;-87
2022/12/07 10:33:30;;;;;;;12.13;3.25;;;5.60;99.90;;;;;;5110525;28;20040;-88
2022/12/07 10:35:56;;;;;;;6.17;1.67;;;5.70;99.90;;;;;;5111279;28;20097;-88
2022/12/07 10:38:23;;;;;;;11.88;1.67;;;5.70;99.90;;;;;;5109883;28;21081;-87
2022/12/07 10:41:03;;;;;;;9.48;1.60;;;5.70;99.90;;;;;;5111995;28;20044;-88
2022/12/07 10:43:29;;;;;;;7.03;1.45;;;5.70;99.90;;;;;;5093923;28;20044;-88
2022/12/07 10:46:20;;;;;;;7.63;1.35;;;5.70;99.90;;;;;;5110518;28;20039;-88
2022/12/07 10:49:04;;;;;;;8.57;1.85;;;5.70;99.90;;;;;;5093105;28;20169;-88
2022/12/07 10:51:58;;;;;;;7.72;1.23;;;5.70;99.90;;;;;;5109732;28;20047;-88
2022/12/07 10:54:33;;;;;;;8.75;1.20;;;5.80;99.90;;;;;;5109876;28;20122;-88
2022/12/07 10:57:16;;;;;;;7.03;0.95;;;5.90;99.90;;;;;;5093868;28;20115;-88
2022/12/07 11:00:20;;;;;;;6.10;1.20;;;6.00;99.90;;;;;;5093077;28;20052;-88
2022/12/07 11:03:00;;;;;;;8.27;1.30;;;6.00;99.90;;;;;;5110537;28;20554;-89
2022/12/07 11:05:39;;;;;;;7.32;1.77;;;6.10;99.90;;;;;;5093013;28;20035;-89
2022/12/07 11:08:25;;;;;;;5.10;0.80;;;6.20;99.90;;;;;;5109368;28;20047;-88
2022/12/07 11:11:04;;;;;;;8.98;1.35;;;6.20;99.90;;;;;;5092573;28;20050;-89
2022/12/07 11:14:00;;;;;;;7.68;1.50;;;6.20;99.90;;;;;;5110020;28;20040;-89
2022/12/07 11:16:43;;;;;;;7.88;1.65;;;6.30;99.90;;;;;;5075174;28;20051;-89
2022/12/07 11:19:29;;;;;;;7.50;1.15;;;6.50;99.90;;;;;;5092436;28;20521;-89
2022/12/07 11:22:05;;;;;;;8.07;1.58;;;6.70;99.90;;;;;;5110819;28;20498;-89
2022/12/07 11:24:43;;;;;;;8.00;1.27;;;6.80;99.90;;;;;;5109300;28;20058;-89
2022/12/07 11:27:16;;;;;;;9.60;1.63;;;6.80;99.90;;;;;;5093035;28;20046;-89
2022/12/07 11:29:50;;;;;;;5.05;1.00;;;6.90;99.90;;;;;;5109439;28;20039;-89
2022/12/07 11:32:54;;;;;;;9.90;1.20;;;7.00;99.90;;;;;;5086651;28;20044;-89
2022/12/07 11:35:35;;;;;;;;;;;7.00;99.90;;;;;;5089986;28;20448;-89
2022/12/07 11:38:10;;;;;;;4.85;1.23;;;7.00;99.90;;;;;;5101340;28;19923;-89
2022/12/07 11:40:36;;;;;;;6.85;1.63;;;7.00;99.90;;;;;;5110035;28;20040;-89
2022/12/07 11:43:14;;;;;;;5.75;1.42;;;6.90;99.90;;;;;;5109120;28;20039;-89
2022/12/07 11:45:46;;;;;;;15.93;1.75;;;6.90;99.90;;;;;;5109986;28;20173;-89
2022/12/07 11:48:25;;;;;;;4.87;1.13;;;7.00;99.90;;;;;;5092601;28;20047;-89
2022/12/07 11:50:54;;;;;;;4.70;1.02;;;7.00;99.90;;;;;;5109247;28;20284;-89
2022/12/07 11:53:26;;;;;;;10.55;1.40;;;7.10;99.90;;;;;;5083438;28;20048;-90
2022/12/07 11:56:12;;;;;;;10.17;1.13;;;7.10;99.90;;;;;;5099825;28;20050;-89
2022/12/07 11:59:05;;;;;;;12.98;1.58;;;7.20;99.90;;;;;;5093472;28;20067;-89
2022/12/07 12:01:33;;;;;;;5.97;1.15;;;7.30;99.90;;;;;;5074329;28;20043;-89
2022/12/07 12:04:10;;;;;;;4.85;1.00;;;7.40;99.90;;;;;;5073386;28;20036;-90
2022/12/07 12:06:41;;;;;;;4.93;1.15;;;7.60;99.90;;;;;;5073156;28;20039;-90
2022/12/07 12:09:25;;;;;;;5.25;1.35;;;7.80;99.90;;;;;;5104336;28;20045;-89
2022/12/07 12:12:22;;;;;;;7.53;1.30;;;7.90;99.90;;;;;;5109521;28;20040;-89
2022/12/07 12:15:23;;;;;;;8.82;1.40;;;8.20;99.90;;;;;;5108442;28;20043;-89
2022/12/07 12:18:07;;;;;;;8.85;1.30;;;9.10;99.90;;;;;;5092948;28;20043;-89
2022/12/07 12:20:43;;;;;;;7.50;1.20;;;10.10;99.90;;;;;;5072515;28;20167;-89
2022/12/07 12:23:14;;;;;;;9.45;1.55;;;11.10;99.90;;;;;;5113258;27;20036;-90
2022/12/07 12:25:45;;;;;;;8.13;2.28;;;12.00;99.90;;;;;;5078629;28;20059;-89
2022/12/07 12:28:28;;;;;;;8.48;2.20;;;13.00;99.90;;;;;;5082708;28;20044;-90
2022/12/07 12:31:14;;;;;;;6.82;1.30;;;13.90;91.50;;;;;;5100283;28;20046;-86
2022/12/07 12:33:46;;;;;;;10.32;1.63;;;13.90;90.80;;;;;;5107634;28;20107;-89
2022/12/07 12:36:15;;;;;;;6.38;1.30;;;13.60;89.30;;;;;;5091148;28;20024;-89
2022/12/07 12:39:08;;;;;;;8.30;1.60;;;13.40;91.60;;;;;;5129373;28;20048;-89
2022/12/07 12:41:38;;;;;;;7.70;1.27;;;12.90;89.60;;;;;;5114141;28;20044;-90
2022/12/07 12:44:17;;;;;;;9.48;1.45;;;12.40;92.30;;;;;;5109791;28;20058;-89
2022/12/07 12:46:47;;;;;;;8.40;1.45;;;12.00;92.70;;;;;;5117733;28;20095;-90
2022/12/07 12:49:19;;;;;;;8.77;1.55;;;11.70;94.10;;;;;;5137156;28;20040;-90
2022/12/07 12:52:15;;;;;;;10.25;1.80;;;11.40;96.00;;;;;;5095962;28;20530;-90
2022/12/07 12:55:01;;;;;;;7.50;1.30;;;10.90;93.80;;;;;;5084496;28;20047;-90
2022/12/07 12:57:30;;;;;;;8.68;1.27;;;10.40;96.10;;;;;;5114042;27;20043;-90
2022/12/07 13:00:03;;;;;;;10.43;1.50;;;10.10;99.60;;;;;;5094290;28;20075;-90
2022/12/07 13:02:34;;;;;;;;;;;10.10;99.90;;;;;;5072751;28;20032;-90
2022/12/07 13:05:07;;;;;;;7.25;1.73;;;10.20;99.10;;;;;;5101956;28;19922;-90
2022/12/07 13:07:54;;;;;;;;;;;10.40;99.90;;;;;;5093056;28;20042;-90
2022/12/07 13:10:29;;;;;;;8.00;1.25;;;10.30;97.00;;;;;;5091329;28;19923;-89
2022/12/07 13:13:11;;;;;;;12.05;1.58;;;10.10;99.90;;;;;;5108583;28;20036;-90
2022/12/07 13:16:07;;;;;;;9.18;1.75;;;10.00;99.90;;;;;;5092409;28;20039;-89
2022/12/07 13:18:33;;;;;;;5.95;1.35;;;9.70;99.90;;;;;;5098631;28;20048;-89
2022/12/07 13:21:02;;;;;;;8.63;1.42;;;9.60;99.90;;;;;;5072440;28;20039;-89